Time;durP1;ratioP1;P1;durP2;ratioP2;P2;SDS_P1;SDS_P2;PMS_P1;PMS_P2;Temp;Humidity;BMP_temperature;BMP_pressure;BME280_temperature;BME280_humidity;BME280_pressure;Samples;Min_cycle;Max_cycle;Signal;HPM_P1;HPM_P2
2023/02/18 00:00:31;;;;;;;22.70;18.17;;;11.00;99.90;;;;;;5044329;28;20456;-81
2023/02/18 00:02:57;;;;;;;25.97;18.33;;;11.00;99.90;;;;;;5040206;28;20547;-80
2023/02/18 00:05:24;;;;;;;26.07;19.60;;;11.10;99.90;;;;;;5037542;28;20456;-80
2023/02/18 00:07:52;;;;;;;26.20;20.57;;;11.10;99.90;;;;;;5045256;28;20482;-82
2023/02/18 00:10:19;;;;;;;29.93;21.47;;;11.10;99.90;;;;;;5051087;28;20486;-80
2023/02/18 00:12:47;;;;;;;23.73;20.40;;;11.10;99.90;;;;;;5038165;28;20508;-82
2023/02/18 00:15:14;;;;;;;28.63;22.07;;;11.10;99.90;;;;;;5038103;28;20464;-81
2023/02/18 00:17:40;;;;;;;24.87;20.23;;;11.10;99.90;;;;;;5037782;28;20857;-80
2023/02/18 00:20:08;;;;;;;25.40;19.17;;;11.10;99.90;;;;;;5037124;28;20515;-80
2023/02/18 00:22:35;;;;;;;25.53;17.90;;;11.10;99.90;;;;;;5038686;28;20532;-81
2023/02/18 00:25:02;;;;;;;29.00;20.50;;;11.10;99.90;;;;;;5039289;28;20511;-82
2023/02/18 00:27:29;;;;;;;27.00;19.23;;;11.10;99.90;;;;;;5031635;28;20484;-82
2023/02/18 00:29:58;;;;;;;26.10;19.90;;;11.10;99.90;;;;;;5017082;28;21032;-79
2023/02/18 00:32:25;;;;;;;26.60;20.37;;;11.10;99.90;;;;;;5026551;28;20478;-81
2023/02/18 00:34:52;;;;;;;24.60;18.90;;;11.20;99.90;;;;;;5031483;28;20461;-81
2023/02/18 00:37:19;;;;;;;28.07;21.73;;;11.20;99.90;;;;;;5036791;28;20470;-79
2023/02/18 00:39:45;;;;;;;29.30;20.23;;;11.20;99.90;;;;;;5036952;28;20453;-80
2023/02/18 00:42:13;;;;;;;24.77;19.13;;;11.30;99.90;;;;;;5037606;28;20456;-80
2023/02/18 00:44:40;;;;;;;25.13;20.10;;;11.30;99.90;;;;;;5036908;28;20453;-80
2023/02/18 00:47:08;;;;;;;27.50;22.00;;;11.30;99.90;;;;;;5038018;28;20502;-81
2023/02/18 00:49:35;;;;;;;30.13;22.03;;;11.40;99.90;;;;;;5037801;28;20468;-80
2023/02/18 00:52:02;;;;;;;30.13;20.37;;;11.40;99.90;;;;;;5039698;28;20504;-81
2023/02/18 00:54:29;;;;;;;26.30;20.90;;;11.50;99.90;;;;;;5040571;28;20457;-83
2023/02/18 00:56:56;;;;;;;27.40;20.93;;;11.50;99.90;;;;;;5043635;28;20514;-81
2023/02/18 00:59:22;;;;;;;29.53;20.77;;;11.40;99.90;;;;;;5040018;28;20444;-82
2023/02/18 01:01:49;;;;;;;29.30;20.83;;;11.40;99.90;;;;;;5038415;28;20453;-82
2023/02/18 01:04:17;;;;;;;28.90;20.60;;;11.50;99.90;;;;;;5038239;28;20457;-82
2023/02/18 01:06:44;;;;;;;28.07;20.80;;;11.40;99.90;;;;;;5042069;28;20492;-82
2023/02/18 01:09:11;;;;;;;24.60;18.93;;;11.40;99.90;;;;;;5039917;28;20449;-81
2023/02/18 01:11:38;;;;;;;28.30;21.17;;;11.40;99.90;;;;;;5038918;28;20484;-83
2023/02/18 01:14:05;;;;;;;29.33;22.00;;;11.50;99.90;;;;;;5038664;28;20528;-82
2023/02/18 01:16:32;;;;;;;33.07;22.97;;;11.50;99.90;;;;;;5039169;28;20835;-81
2023/02/18 01:18:58;;;;;;;33.80;25.37;;;11.50;99.90;;;;;;5039659;28;20548;-83
2023/02/18 01:21:26;;;;;;;32.63;24.37;;;11.50;99.90;;;;;;5039276;28;20448;-81
2023/02/18 01:23:53;;;;;;;39.60;27.03;;;11.40;99.90;;;;;;5038818;28;20445;-82
2023/02/18 01:26:20;;;;;;;36.93;27.47;;;11.40;99.90;;;;;;5039266;28;20722;-80
2023/02/18 01:28:47;;;;;;;34.80;26.10;;;11.40;99.90;;;;;;5019171;28;20527;-81
2023/02/18 01:31:14;;;;;;;38.20;26.57;;;11.40;99.90;;;;;;5033998;28;20564;-82
2023/02/18 01:33:42;;;;;;;34.53;25.63;;;11.40;99.90;;;;;;5039360;28;20489;-81
2023/02/18 01:36:10;;;;;;;40.27;27.73;;;11.30;99.90;;;;;;5038161;28;20534;-83
2023/02/18 01:38:38;;;;;;;36.43;26.60;;;11.30;99.90;;;;;;5037145;28;20540;-82
2023/02/18 01:41:06;;;;;;;42.30;28.57;;;11.30;99.90;;;;;;5037311;28;20454;-81
2023/02/18 01:43:33;;;;;;;41.73;27.07;;;11.30;99.90;;;;;;5044818;28;20517;-82
2023/02/18 01:46:06;;;;;;;45.43;33.00;;;11.30;99.90;;;;;;5044863;28;20464;-82
2023/02/18 01:48:35;;;;;;;49.30;32.97;;;11.30;99.90;;;;;;5042749;28;20447;-84
2023/02/18 01:51:05;;;;;;;46.50;31.50;;;11.30;99.90;;;;;;5043266;28;20475;-83
2023/02/18 01:53:39;;;;;;;44.03;30.13;;;11.30;99.90;;;;;;5042656;28;20485;-82
2023/02/18 01:56:11;;;;;;;41.43;28.57;;;11.30;99.90;;;;;;5048315;28;20546;-82
2023/02/18 01:58:38;;;;;;;42.80;28.77;;;11.20;99.90;;;;;;5041997;28;20445;-82
2023/02/18 02:01:05;;;;;;;41.93;27.53;;;11.30;99.90;;;;;;5053281;28;20464;-82
2023/02/18 02:03:32;;;;;;;39.20;26.63;;;11.30;99.90;;;;;;5044379;28;20973;-82
2023/02/18 02:05:59;;;;;;;39.20;27.57;;;11.30;99.90;;;;;;5044620;28;20462;-81
2023/02/18 02:08:26;;;;;;;38.90;26.50;;;11.30;99.90;;;;;;5051769;28;20508;-83
2023/02/18 02:11:07;;;;;;;37.63;27.10;;;11.30;99.90;;;;;;5023565;28;20448;-82
2023/02/18 02:13:46;;;;;;;31.27;23.30;;;11.30;99.90;;;;;;5035793;28;20898;-82
2023/02/18 02:16:22;;;;;;;34.17;23.63;;;11.30;99.90;;;;;;5036276;28;20455;-82
2023/02/18 02:19:02;;;;;;;28.37;21.00;;;11.30;99.90;;;;;;5036295;28;20458;-82
2023/02/18 02:22:16;;;;;;;28.37;21.63;;;11.30;99.90;;;;;;5036061;28;20449;-83
2023/02/18 02:24:59;;;;;;;28.10;20.40;;;11.30;99.90;;;;;;5001898;28;20523;-82
2023/02/18 02:27:40;;;;;;;27.90;20.60;;;11.30;99.90;;;;;;5028018;28;20484;-82
2023/02/18 02:30:41;;;;;;;29.03;21.90;;;11.30;99.90;;;;;;5036890;28;20461;-80
2023/02/18 02:33:56;;;;;;;37.23;21.90;;;11.30;99.90;;;;;;5037254;28;20494;-82
2023/02/18 02:36:31;;;;;;;28.57;20.80;;;11.30;99.90;;;;;;4977376;28;20483;-81
2023/02/18 02:39:06;;;;;;;26.43;20.10;;;11.40;99.90;;;;;;5024925;28;20454;-81
2023/02/18 02:41:46;;;;;;;22.23;17.80;;;11.40;99.90;;;;;;5036831;28;20440;-81
2023/02/18 02:44:20;;;;;;;25.00;18.47;;;11.30;99.90;;;;;;5036732;28;20457;-81
2023/02/18 02:46:51;;;;;;;24.30;18.10;;;11.40;99.90;;;;;;5037098;28;20548;-82
2023/02/18 02:49:31;;;;;;;23.27;17.30;;;11.40;99.90;;;;;;5036740;28;20457;-81
2023/02/18 02:52:03;;;;;;;22.47;17.40;;;11.40;99.90;;;;;;5036089;28;20567;-80
2023/02/18 02:54:30;;;;;;;23.27;17.97;;;11.40;99.90;;;;;;5036546;28;20503;-82
2023/02/18 02:57:29;;;;;;;22.10;16.17;;;11.40;99.90;;;;;;5037343;28;20498;-83
2023/02/18 03:00:00;;;;;;;20.57;14.27;;;11.40;99.90;;;;;;5035731;28;20464;-81
2023/02/18 03:02:37;;;;;;;20.40;14.83;;;11.40;99.90;;;;;;5037365;28;20456;-82
2023/02/18 03:05:14;;;;;;;19.10;13.47;;;11.40;99.90;;;;;;5036586;28;20448;-82
2023/02/18 03:08:04;;;;;;;19.67;13.23;;;11.40;99.90;;;;;;5045142;28;20475;-82
2023/02/18 03:10:45;;;;;;;16.50;11.10;;;11.40;99.90;;;;;;5040363;28;20936;-81
2023/02/18 03:13:22;;;;;;;17.33;12.13;;;11.40;99.90;;;;;;5036475;28;20481;-82
2023/02/18 03:15:56;;;;;;;17.57;13.40;;;11.40;99.90;;;;;;5026749;28;20481;-83
2023/02/18 03:18:28;;;;;;;17.83;12.10;;;11.40;99.90;;;;;;5036046;28;20926;-82
2023/02/18 03:20:58;;;;;;;17.30;12.90;;;11.40;99.90;;;;;;5035772;28;20964;-83
2023/02/18 03:23:29;;;;;;;16.87;11.50;;;11.30;99.90;;;;;;5036912;28;20454;-82
2023/02/18 03:25:58;;;;;;;15.27;11.03;;;11.30;99.90;;;;;;5036710;28;20449;-81
2023/02/18 03:28:30;;;;;;;13.93;10.20;;;11.30;99.90;;;;;;5038993;28;20456;-83
2023/02/18 03:31:04;;;;;;;13.03;9.70;;;11.30;99.90;;;;;;5040629;28;20475;-80
2023/02/18 03:33:36;;;;;;;12.60;9.07;;;11.30;99.90;;;;;;5041189;28;20567;-82
2023/02/18 03:36:03;;;;;;;16.90;11.17;;;11.20;99.90;;;;;;5040828;28;20455;-84
2023/02/18 03:38:36;;;;;;;14.83;9.70;;;11.10;99.90;;;;;;5037710;28;20474;-83
2023/02/18 03:41:04;;;;;;;13.57;9.77;;;11.10;99.90;;;;;;5040108;28;20963;-84
2023/02/18 03:43:31;;;;;;;13.03;10.40;;;11.10;99.90;;;;;;5030862;28;20920;-82
2023/02/18 03:46:00;;;;;;;11.53;9.37;;;11.00;99.90;;;;;;5038484;28;20452;-83
2023/02/18 03:48:26;;;;;;;12.73;8.80;;;11.00;99.90;;;;;;5074200;22;20554;-82
2023/02/18 03:50:53;;;;;;;16.50;9.50;;;11.00;99.90;;;;;;5054657;28;20447;-86
2023/02/18 03:53:20;;;;;;;12.20;9.20;;;11.10;99.90;;;;;;5056635;28;20515;-85
2023/02/18 03:55:47;;;;;;;13.70;9.10;;;11.00;99.90;;;;;;5054544;28;20500;-84
2023/02/18 03:58:14;;;;;;;13.63;8.87;;;11.00;99.90;;;;;;5067400;28;20538;-86
2023/02/18 04:00:40;;;;;;;13.50;9.97;;;11.00;99.90;;;;;;5057092;28;20493;-83
2023/02/18 04:03:08;;;;;;;13.77;10.43;;;11.00;99.90;;;;;;5045378;28;20487;-83
2023/02/18 04:05:35;;;;;;;20.60;12.00;;;11.00;99.90;;;;;;5042262;28;20993;-84
2023/02/18 04:08:02;;;;;;;16.23;10.60;;;11.00;99.90;;;;;;5038340;28;20471;-85
2023/02/18 04:10:29;;;;;;;17.00;11.30;;;11.00;99.90;;;;;;5049984;28;20533;-85
2023/02/18 04:12:56;;;;;;;16.07;11.53;;;11.00;99.90;;;;;;5049529;28;20542;-85
2023/02/18 04:15:23;;;;;;;17.53;12.00;;;11.10;99.90;;;;;;5035208;28;20544;-85
2023/02/18 04:17:50;;;;;;;19.37;11.60;;;11.00;99.90;;;;;;5041516;28;20473;-85
2023/02/18 04:20:18;;;;;;;16.87;12.43;;;11.00;99.90;;;;;;5032422;28;20457;-85
2023/02/18 04:22:45;;;;;;;14.93;11.07;;;11.00;99.90;;;;;;5048220;28;20449;-84
2023/02/18 04:25:11;;;;;;;15.67;10.80;;;11.10;99.90;;;;;;5044009;28;20476;-85
2023/02/18 04:27:38;;;;;;;15.10;10.23;;;11.10;99.90;;;;;;5028872;28;20488;-85
2023/02/18 04:30:06;;;;;;;16.23;10.17;;;11.20;99.90;;;;;;5036912;28;20453;-84
2023/02/18 04:32:33;;;;;;;14.47;9.40;;;11.10;99.90;;;;;;5046870;28;20547;-85
2023/02/18 04:35:00;;;;;;;19.70;11.53;;;11.10;99.90;;;;;;5037609;28;20513;-85
2023/02/18 04:37:28;;;;;;;17.27;10.80;;;11.00;99.90;;;;;;5047366;28;20483;-85
2023/02/18 04:39:55;;;;;;;16.27;10.87;;;11.00;99.90;;;;;;5037065;28;20481;-83
2023/02/18 04:42:22;;;;;;;17.07;10.43;;;11.10;99.90;;;;;;5034746;28;20461;-80
2023/02/18 04:44:49;;;;;;;12.90;8.40;;;11.10;99.90;;;;;;5043995;28;20531;-80
2023/02/18 04:47:15;;;;;;;13.83;9.00;;;11.10;99.90;;;;;;5043336;28;21167;-82
2023/02/18 04:49:42;;;;;;;14.27;8.13;;;11.10;99.90;;;;;;5063030;28;20441;-79
2023/02/18 04:52:09;;;;;;;12.80;8.60;;;11.10;99.90;;;;;;5044227;28;20516;-79
2023/02/18 04:54:37;;;;;;;13.03;8.47;;;11.10;99.90;;;;;;5050580;28;20511;-82
2023/02/18 04:57:04;;;;;;;10.77;7.13;;;11.00;99.90;;;;;;5028755;28;20513;-83
2023/02/18 04:59:31;;;;;;;11.30;6.50;;;11.00;99.90;;;;;;5027308;28;20549;-82
2023/02/18 05:01:58;;;;;;;8.77;5.80;;;10.90;99.90;;;;;;5048391;28;20453;-84
2023/02/18 05:04:25;;;;;;;9.50;5.30;;;10.90;99.90;;;;;;5047739;28;20472;-82
2023/02/18 05:06:52;;;;;;;11.53;5.10;;;10.90;99.90;;;;;;5032640;28;20468;-80
2023/02/18 05:09:18;;;;;;;7.80;5.43;;;10.90;99.90;;;;;;5026869;28;20453;-82
2023/02/18 05:11:47;;;;;;;6.80;4.83;;;10.80;99.90;;;;;;5030244;28;20476;-82
2023/02/18 05:14:14;;;;;;;6.23;4.90;;;10.80;99.90;;;;;;5046308;28;20496;-82
2023/02/18 05:16:41;;;;;;;5.53;3.63;;;10.70;99.90;;;;;;5044322;28;20531;-83
2023/02/18 05:19:08;;;;;;;4.87;3.30;;;10.70;99.90;;;;;;5042319;28;20557;-82
2023/02/18 05:21:35;;;;;;;7.50;3.87;;;10.70;99.90;;;;;;5027921;28;20545;-81
2023/02/18 05:24:01;;;;;;;4.63;3.00;;;10.70;99.90;;;;;;5037373;28;20448;-82
2023/02/18 05:26:28;;;;;;;4.73;2.73;;;10.60;99.90;;;;;;5020884;28;20525;-81
2023/02/18 05:28:57;;;;;;;4.43;2.97;;;10.70;99.90;;;;;;5022886;28;20584;-81
2023/02/18 05:31:23;;;;;;;4.63;2.37;;;10.70;99.90;;;;;;5027846;28;20484;-84
2023/02/18 05:33:50;;;;;;;3.23;2.40;;;10.80;99.90;;;;;;5040481;28;20479;-83
2023/02/18 05:36:17;;;;;;;4.00;2.17;;;10.70;99.90;;;;;;5025474;28;20449;-82
2023/02/18 05:38:44;;;;;;;2.37;2.07;;;10.70;99.90;;;;;;5030132;28;20476;-82
2023/02/18 05:41:11;;;;;;;2.53;1.70;;;10.60;99.90;;;;;;5042894;28;20523;-81
2023/02/18 05:46:20;;;;;;;4.43;2.50;;;10.70;99.90;;;;;;5039088;28;20482;-83
2023/02/18 05:48:46;;;;;;;2.80;2.17;;;10.70;99.90;;;;;;5049042;28;20563;-83
2023/02/18 05:51:13;;;;;;;4.80;2.27;;;10.60;99.90;;;;;;5037053;28;20511;-83
2023/02/18 05:53:40;;;;;;;3.20;2.40;;;10.60;99.90;;;;;;5028578;28;20534;-82
2023/02/18 05:56:07;;;;;;;3.67;2.70;;;10.60;99.90;;;;;;5036568;28;20493;-83
2023/02/18 05:58:34;;;;;;;3.53;3.10;;;10.60;99.90;;;;;;5033457;28;20541;-82
2023/02/18 06:01:01;;;;;;;3.70;2.57;;;10.60;99.90;;;;;;5029036;28;20486;-83
2023/02/18 06:03:29;;;;;;;5.00;3.20;;;10.60;99.90;;;;;;5028932;28;20529;-84
2023/02/18 06:05:57;;;;;;;4.87;3.50;;;10.60;99.90;;;;;;5029261;28;20524;-81
2023/02/18 06:08:23;;;;;;;4.57;3.70;;;10.60;99.90;;;;;;5029600;28;20568;-82
2023/02/18 06:10:50;;;;;;;4.33;3.23;;;10.60;99.90;;;;;;5029187;28;20521;-83
2023/02/18 06:13:17;;;;;;;4.07;3.00;;;10.60;99.90;;;;;;5030537;28;20508;-82
2023/02/18 06:15:44;;;;;;;4.77;3.30;;;10.60;99.90;;;;;;5030224;28;20540;-83
2023/02/18 06:18:11;;;;;;;4.17;3.33;;;10.60;99.90;;;;;;5029109;28;20529;-81
2023/02/18 06:20:40;;;;;;;5.00;2.80;;;10.60;99.90;;;;;;5027988;28;20474;-81
2023/02/18 06:23:10;;;;;;;4.40;3.17;;;10.60;99.90;;;;;;5029341;28;20883;-80
2023/02/18 06:25:37;;;;;;;4.43;2.90;;;10.60;99.90;;;;;;5029584;28;20452;-81
2023/02/18 06:28:04;;;;;;;5.50;3.77;;;10.50;99.90;;;;;;5028873;28;20580;-82
2023/02/18 06:30:30;;;;;;;5.30;4.00;;;10.50;99.90;;;;;;5034529;28;20466;-81
2023/02/18 06:32:57;;;;;;;6.13;3.97;;;10.50;99.90;;;;;;5048078;28;20888;-81
2023/02/18 06:35:24;;;;;;;4.53;3.30;;;10.50;99.90;;;;;;5048248;28;20907;-81
2023/02/18 06:37:52;;;;;;;5.10;3.60;;;10.50;99.90;;;;;;5048754;28;20558;-83
2023/02/18 06:40:19;;;;;;;4.23;3.70;;;10.50;99.90;;;;;;5048253;28;20491;-81
2023/02/18 06:42:46;;;;;;;4.77;2.87;;;10.50;99.90;;;;;;5047115;28;20443;-81
2023/02/18 06:45:13;;;;;;;3.67;2.70;;;10.50;99.90;;;;;;5055086;28;20856;-83
2023/02/18 06:47:40;;;;;;;3.40;2.90;;;10.50;99.90;;;;;;5046520;28;20506;-82
2023/02/18 06:50:07;;;;;;;3.50;2.70;;;10.50;99.90;;;;;;5041549;28;20535;-80
2023/02/18 06:52:36;;;;;;;3.70;3.03;;;10.50;99.90;;;;;;5043160;28;20456;-82
2023/02/18 06:55:06;;;;;;;5.00;3.33;;;10.40;99.90;;;;;;5030258;28;20494;-81
2023/02/18 06:57:32;;;;;;;4.17;2.60;;;10.40;99.90;;;;;;5031432;28;20486;-81
2023/02/18 07:00:00;;;;;;;4.80;2.63;;;10.40;99.90;;;;;;5038444;28;20520;-82
2023/02/18 07:02:27;;;;;;;3.13;2.43;;;10.40;99.90;;;;;;5019669;28;20539;-82
2023/02/18 07:04:55;;;;;;;3.60;2.57;;;10.40;99.90;;;;;;5019152;28;20457;-81
2023/02/18 07:07:22;;;;;;;4.73;2.97;;;10.40;99.90;;;;;;5018747;28;20497;-82
2023/02/18 07:09:48;;;;;;;6.13;3.20;;;10.40;99.90;;;;;;5020206;28;20524;-81
2023/02/18 07:12:17;;;;;;;5.63;2.83;;;10.40;99.90;;;;;;5037789;28;20464;-81
2023/02/18 07:14:43;;;;;;;4.73;2.43;;;10.40;99.90;;;;;;5038696;28;20542;-81
2023/02/18 07:17:10;;;;;;;4.70;3.13;;;10.40;99.90;;;;;;5038291;28;20889;-82
2023/02/18 07:19:37;;;;;;;3.57;2.77;;;10.40;99.90;;;;;;5038424;28;20462;-81
2023/02/18 07:22:04;;;;;;;3.90;2.83;;;10.40;99.90;;;;;;5032427;28;20456;-83
2023/02/18 07:24:31;;;;;;;3.80;2.43;;;10.40;99.90;;;;;;5023355;28;20629;-81
2023/02/18 07:26:58;;;;;;;3.90;2.87;;;10.40;99.90;;;;;;5034631;28;20459;-81
2023/02/18 07:29:26;;;;;;;4.00;2.90;;;10.40;99.90;;;;;;5021479;28;20464;-82
2023/02/18 07:31:53;;;;;;;6.37;3.30;;;10.40;99.90;;;;;;5023435;28;20598;-80
2023/02/18 07:34:19;;;;;;;4.10;3.23;;;10.40;99.90;;;;;;5036065;28;21224;-81
2023/02/18 07:36:47;;;;;;;3.60;2.67;;;10.40;99.90;;;;;;5036573;28;20897;-80
2023/02/18 07:39:13;;;;;;;4.03;2.73;;;10.30;99.90;;;;;;5031851;28;20559;-80
2023/02/18 07:41:40;;;;;;;5.80;3.17;;;10.40;99.90;;;;;;5029119;28;20467;-81
2023/02/18 07:44:07;;;;;;;6.50;4.90;;;10.40;99.90;;;;;;5015837;28;20463;-80
2023/02/18 07:46:39;;;;;;;5.60;4.60;;;10.30;99.90;;;;;;5028531;28;20808;-79
2023/02/18 07:49:06;;;;;;;5.20;4.67;;;10.30;99.90;;;;;;5037333;28;20495;-80
2023/02/18 07:51:32;;;;;;;7.10;6.40;;;10.30;99.90;;;;;;5035587;28;20535;-80
2023/02/18 07:53:59;;;;;;;8.00;6.93;;;10.30;99.90;;;;;;5043148;28;21017;-81
2023/02/18 07:56:26;;;;;;;7.30;6.60;;;10.30;99.90;;;;;;5031413;28;20461;-79
2023/02/18 07:58:53;;;;;;;7.80;6.57;;;10.30;99.90;;;;;;5037148;28;21077;-79
2023/02/18 08:01:20;;;;;;;6.93;6.23;;;10.40;99.90;;;;;;5042702;28;20452;-80
2023/02/18 08:03:48;;;;;;;7.33;6.40;;;10.40;99.90;;;;;;5034627;28;20467;-80
2023/02/18 08:06:21;;;;;;;6.13;5.20;;;10.40;99.90;;;;;;5033009;28;20541;-79
2023/02/18 08:08:48;;;;;;;6.43;4.53;;;10.40;99.90;;;;;;5034332;28;20514;-80
2023/02/18 08:11:15;;;;;;;4.10;3.67;;;10.50;99.90;;;;;;5034284;28;20455;-79
2023/02/18 08:13:43;;;;;;;5.40;3.87;;;10.40;99.90;;;;;;5046072;28;20488;-77
2023/02/18 08:16:10;;;;;;;3.83;3.30;;;10.40;99.90;;;;;;5043795;28;20459;-78
2023/02/18 08:18:37;;;;;;;3.50;2.87;;;10.40;99.90;;;;;;5046250;28;20539;-79
2023/02/18 08:21:05;;;;;;;3.40;3.03;;;10.50;99.90;;;;;;5045480;28;20551;-79
2023/02/18 08:23:32;;;;;;;3.33;2.87;;;10.50;99.90;;;;;;5047354;28;20486;-79
2023/02/18 08:25:59;;;;;;;3.40;1.60;;;10.50;99.90;;;;;;5046551;28;21003;-80
2023/02/18 08:28:27;;;;;;;2.87;1.90;;;10.60;99.90;;;;;;5044713;28;20536;-80
2023/02/18 08:30:54;;;;;;;2.97;1.70;;;10.60;99.90;;;;;;5042466;28;20952;-80
2023/02/18 08:33:22;;;;;;;2.90;1.97;;;10.70;99.90;;;;;;5042104;28;20595;-80
2023/02/18 08:35:51;;;;;;;3.90;2.03;;;10.70;99.90;;;;;;5042488;28;20457;-80
2023/02/18 08:38:19;;;;;;;3.70;2.70;;;10.70;99.90;;;;;;5028063;28;20477;-80
2023/02/18 08:40:46;;;;;;;5.63;3.00;;;10.70;99.90;;;;;;5027790;28;20473;-79
2023/02/18 08:43:14;;;;;;;3.33;3.03;;;10.70;99.90;;;;;;5041721;28;20953;-80
2023/02/18 08:45:42;;;;;;;4.23;3.50;;;10.60;99.90;;;;;;5023242;28;20448;-81
2023/02/18 08:48:15;;;;;;;3.53;3.17;;;10.60;99.90;;;;;;5041304;28;20468;-79
2023/02/18 08:50:42;;;;;;;3.40;3.10;;;10.70;99.90;;;;;;5034487;28;20807;-80
2023/02/18 08:53:09;;;;;;;5.43;4.00;;;10.80;99.90;;;;;;5024938;28;20515;-80
2023/02/18 08:55:40;;;;;;;5.70;3.60;;;10.70;99.90;;;;;;5025133;28;20776;-80
2023/02/18 08:58:07;;;;;;;4.40;3.17;;;10.70;99.90;;;;;;5034808;28;20471;-81
2023/02/18 09:00:34;;;;;;;4.20;2.20;;;10.80;99.90;;;;;;5038067;28;20551;-79
2023/02/18 09:03:01;;;;;;;3.93;3.53;;;10.70;99.90;;;;;;5042914;28;20476;-80
2023/02/18 09:05:28;;;;;;;4.57;3.70;;;10.60;99.90;;;;;;5039068;28;21736;-81
2023/02/18 09:07:55;;;;;;;5.80;4.47;;;10.50;99.90;;;;;;5034188;28;20552;-81
2023/02/18 09:10:22;;;;;;;6.37;4.80;;;10.50;99.90;;;;;;5035534;28;20473;-80
2023/02/18 09:12:50;;;;;;;8.33;3.70;;;10.40;99.90;;;;;;5024222;28;20556;-80
2023/02/18 09:15:17;;;;;;;6.10;4.00;;;10.30;99.90;;;;;;5026074;28;20508;-81
2023/02/18 09:17:44;;;;;;;6.60;3.30;;;10.30;99.90;;;;;;5028865;28;21040;-80
2023/02/18 09:20:12;;;;;;;6.90;3.30;;;10.30;99.90;;;;;;5030179;28;20495;-79
2023/02/18 09:22:39;;;;;;;4.73;2.80;;;10.40;99.90;;;;;;5031822;28;20474;-81
2023/02/18 09:25:06;;;;;;;6.70;2.80;;;10.40;99.90;;;;;;5038733;28;20462;-80
2023/02/18 09:27:33;;;;;;;6.43;3.20;;;10.30;99.90;;;;;;5044436;28;21018;-78
2023/02/18 09:30:02;;;;;;;6.33;2.70;;;10.40;99.90;;;;;;5036533;28;20468;-79
2023/02/18 09:32:29;;;;;;;11.57;3.10;;;10.40;99.90;;;;;;5043970;28;20579;-80
2023/02/18 09:34:55;;;;;;;8.13;2.70;;;10.40;99.90;;;;;;5040622;28;20481;-79
2023/02/18 09:37:22;;;;;;;6.20;2.80;;;10.40;99.90;;;;;;5041015;28;20551;-81
2023/02/18 09:39:49;;;;;;;7.23;3.27;;;10.50;99.90;;;;;;5041026;28;20654;-81
2023/02/18 09:42:20;;;;;;;8.60;3.27;;;10.50;99.90;;;;;;5039619;28;20526;-83
2023/02/18 09:44:51;;;;;;;5.23;3.10;;;10.40;99.90;;;;;;5035481;28;20502;-80
2023/02/18 09:47:28;;;;;;;8.00;4.10;;;10.50;99.90;;;;;;5048549;28;20588;-80
2023/02/18 09:49:58;;;;;;;11.63;3.73;;;10.40;99.90;;;;;;5049699;28;20459;-82
2023/02/18 09:52:28;;;;;;;11.17;4.07;;;10.50;99.90;;;;;;5066312;22;20569;-81
2023/02/18 09:54:56;;;;;;;6.10;3.70;;;10.40;99.90;;;;;;5044304;28;20874;-81
2023/02/18 09:57:26;;;;;;;8.13;4.00;;;10.50;99.90;;;;;;5038802;28;20461;-80
2023/02/18 09:59:59;;;;;;;8.47;4.70;;;10.40;99.90;;;;;;5041652;28;20451;-80
2023/02/18 10:02:28;;;;;;;9.20;6.43;;;10.40;99.90;;;;;;5040098;28;20496;-79
2023/02/18 10:04:56;;;;;;;11.27;6.50;;;10.30;99.90;;;;;;5040926;28;20443;-80
2023/02/18 10:07:27;;;;;;;10.40;8.10;;;10.20;99.90;;;;;;5043422;28;20788;-82
2023/02/18 10:09:55;;;;;;;12.77;6.40;;;10.20;99.90;;;;;;5039416;28;20462;-82
2023/02/18 10:12:23;;;;;;;15.37;6.60;;;10.10;99.90;;;;;;5042024;28;20475;-82
2023/02/18 10:14:53;;;;;;;11.20;4.83;;;10.10;99.90;;;;;;5038893;28;20495;-82
2023/02/18 10:17:22;;;;;;;7.87;5.80;;;10.20;99.90;;;;;;5036091;28;20494;-82
2023/02/18 10:19:53;;;;;;;9.27;6.27;;;10.10;99.90;;;;;;5041274;28;20911;-81
2023/02/18 10:22:22;;;;;;;15.43;6.30;;;10.10;99.90;;;;;;5047461;28;20581;-80
2023/02/18 10:24:52;;;;;;;10.00;6.00;;;10.10;99.90;;;;;;5035784;28;20556;-82
2023/02/18 10:27:24;;;;;;;13.40;5.93;;;10.10;99.90;;;;;;5039959;28;20543;-81
2023/02/18 10:29:51;;;;;;;7.17;5.80;;;10.00;99.90;;;;;;5050657;28;20869;-82
2023/02/18 10:32:23;;;;;;;10.27;5.13;;;10.10;99.90;;;;;;5040646;28;20479;-82
2023/02/18 10:34:57;;;;;;;9.20;3.73;;;10.10;99.90;;;;;;5039063;28;20505;-82
2023/02/18 10:37:46;;;;;;;6.60;3.47;;;10.00;99.90;;;;;;5046055;28;20455;-83
2023/02/18 10:40:19;;;;;;;7.90;3.30;;;10.10;99.90;;;;;;5037892;28;20499;-82
2023/02/18 10:42:57;;;;;;;11.13;4.93;;;10.00;99.90;;;;;;5045093;28;21025;-82
2023/02/18 10:45:34;;;;;;;10.20;3.83;;;10.10;99.90;;;;;;5035004;28;20488;-84
2023/02/18 10:48:13;;;;;;;12.40;5.00;;;10.10;99.90;;;;;;5040885;28;20521;-83
2023/02/18 10:50:44;;;;;;;12.87;6.63;;;10.00;99.90;;;;;;5039404;28;20475;-83
2023/02/18 10:53:18;;;;;;;11.57;5.23;;;10.00;99.90;;;;;;5038049;28;20487;-83
2023/02/18 10:55:48;;;;;;;17.10;6.83;;;9.90;99.90;;;;;;5039918;28;20538;-84
2023/02/18 10:58:27;;;;;;;9.30;6.17;;;9.90;99.90;;;;;;5035601;28;20469;-82
2023/02/18 11:00:54;;;;;;;12.80;5.90;;;9.90;99.90;;;;;;5033169;28;20451;-83
2023/02/18 11:03:22;;;;;;;13.40;5.70;;;9.90;99.90;;;;;;5033624;28;20885;-83
2023/02/18 11:05:53;;;;;;;9.83;5.77;;;9.80;99.90;;;;;;5031067;28;20532;-83
2023/02/18 11:08:22;;;;;;;8.63;5.97;;;9.80;99.90;;;;;;5039999;28;20456;-83
2023/02/18 11:10:50;;;;;;;13.47;7.23;;;9.90;99.90;;;;;;5034589;28;20455;-82
2023/02/18 11:13:25;;;;;;;10.57;6.73;;;9.80;99.90;;;;;;5035495;28;20539;-83
2023/02/18 11:15:57;;;;;;;9.33;6.90;;;9.80;99.90;;;;;;5038499;28;20857;-83
2023/02/18 11:18:34;;;;;;;13.23;7.73;;;9.90;99.90;;;;;;5031380;28;20530;-83
2023/02/18 11:21:07;;;;;;;11.63;7.27;;;10.00;99.90;;;;;;5036419;28;20545;-83
2023/02/18 11:23:47;;;;;;;12.73;8.90;;;10.00;99.90;;;;;;5032954;28;20900;-82
2023/02/18 11:26:16;;;;;;;13.13;9.20;;;9.90;99.90;;;;;;5037987;28;20812;-84
2023/02/18 11:28:45;;;;;;;11.30;8.30;;;9.90;99.90;;;;;;5030819;28;20454;-83
2023/02/18 11:31:20;;;;;;;12.93;9.83;;;9.80;99.90;;;;;;5028423;28;22252;-84
2023/02/18 11:33:51;;;;;;;14.03;12.10;;;9.80;99.90;;;;;;5028994;28;20997;-82
2023/02/18 11:36:25;;;;;;;14.73;10.20;;;9.80;99.90;;;;;;5035663;28;20549;-84
2023/02/18 11:38:55;;;;;;;14.70;10.90;;;9.90;99.90;;;;;;5044390;28;20460;-83
2023/02/18 11:41:30;;;;;;;15.23;11.23;;;10.00;99.90;;;;;;5041832;28;21183;-80
2023/02/18 11:43:59;;;;;;;12.83;11.00;;;9.90;99.90;;;;;;5039821;28;20509;-81
2023/02/18 11:46:26;;;;;;;14.93;11.33;;;10.00;99.90;;;;;;5040370;28;20453;-82
2023/02/18 11:48:57;;;;;;;14.20;10.47;;;10.00;99.90;;;;;;5036906;28;20443;-82
2023/02/18 11:51:28;;;;;;;14.60;10.30;;;10.00;99.90;;;;;;5035203;28;20547;-83
2023/02/18 11:54:01;;;;;;;22.60;12.10;;;10.00;99.90;;;;;;5038962;28;20485;-82
2023/02/18 11:56:30;;;;;;;12.27;10.90;;;9.90;99.90;;;;;;5026756;28;20854;-82
2023/02/18 11:59:01;;;;;;;16.40;11.83;;;10.00;99.90;;;;;;5037918;28;20570;-84
2023/02/18 12:01:41;;;;;;;18.33;12.83;;;10.00;99.90;;;;;;5054260;28;20461;-83
2023/02/18 12:04:13;;;;;;;15.60;13.27;;;10.10;99.90;;;;;;5042472;28;20474;-83
2023/02/18 12:06:49;;;;;;;13.30;11.97;;;10.10;99.90;;;;;;5046143;28;20448;-83
2023/02/18 12:09:26;;;;;;;14.37;11.37;;;10.10;99.90;;;;;;5041471;28;20567;-83
2023/02/18 12:11:58;;;;;;;16.63;11.17;;;10.10;99.90;;;;;;5043168;28;20478;-83
2023/02/18 12:14:51;;;;;;;15.90;11.40;;;10.20;99.90;;;;;;5043348;28;20456;-83
2023/02/18 12:17:49;;;;;;;14.30;11.60;;;10.10;99.90;;;;;;5041228;28;20495;-82
2023/02/18 12:20:44;;;;;;;13.93;11.07;;;10.20;99.90;;;;;;5038336;28;21003;-84
2023/02/18 12:23:25;;;;;;;15.53;10.70;;;10.20;99.90;;;;;;5043081;28;20568;-83
2023/02/18 12:26:01;;;;;;;11.83;10.20;;;10.20;99.90;;;;;;5045224;28;20450;-84
2023/02/18 12:28:45;;;;;;;11.23;10.07;;;10.20;99.90;;;;;;5038838;28;20593;-84
2023/02/18 12:31:31;;;;;;;13.57;10.97;;;10.20;99.90;;;;;;5037807;28;20526;-83
2023/02/18 12:34:16;;;;;;;11.53;9.90;;;10.10;99.90;;;;;;5038304;28;20543;-84
2023/02/18 12:36:56;;;;;;;11.80;9.13;;;10.10;99.90;;;;;;5033902;28;20488;-85
2023/02/18 12:39:35;;;;;;;11.20;9.80;;;10.10;99.90;;;;;;5025294;28;20442;-84
2023/02/18 12:42:25;;;;;;;12.60;10.77;;;10.20;99.90;;;;;;5030025;28;20445;-84
2023/02/18 12:45:15;;;;;;;12.67;11.23;;;10.20;99.90;;;;;;5036325;28;20762;-84
2023/02/18 12:47:56;;;;;;;12.43;10.70;;;10.20;99.90;;;;;;5030785;28;20468;-84
2023/02/18 12:50:40;;;;;;;11.50;10.10;;;10.20;99.90;;;;;;5037657;28;20544;-85
2023/02/18 12:53:30;;;;;;;13.20;11.40;;;10.20;99.90;;;;;;5042072;28;20892;-83
2023/02/18 12:56:21;;;;;;;14.23;11.97;;;10.30;99.90;;;;;;5036201;28;21066;-83